Time;durP1;ratioP1;P1;durP2;ratioP2;P2;SDS_P1;SDS_P2;PMS_P1;PMS_P2;Temp;Humidity;BMP_temperature;BMP_pressure;BME280_temperature;BME280_humidity;BME280_pressure;Samples;Min_cycle;Max_cycle;Signal;HPM_P1;HPM_P2
2023/01/25 00:01:04;;;;;;;38.50;20.10;;;;;;;-1.50;100.00;100455.28;4218255;28;20596;-74
2023/01/25 00:03:04;;;;;;;31.27;15.98;;;;;;;-1.52;100.00;100444.69;4217856;27;20040;-74
2023/01/25 00:05:05;;;;;;;44.22;23.08;;;;;;;-1.54;100.00;100452.28;4207438;28;20539;-74
2023/01/25 00:07:05;;;;;;;36.92;18.33;;;;;;;-1.55;100.00;100442.50;4204833;28;20123;-74
2023/01/25 00:09:05;;;;;;;27.88;14.10;;;;;;;-1.55;100.00;100445.22;4207181;28;20107;-74
2023/01/25 00:11:06;;;;;;;31.70;14.98;;;;;;;-1.55;100.00;100447.91;4217876;28;20572;-74
2023/01/25 00:13:06;;;;;;;30.67;14.35;;;;;;;-1.57;100.00;100454.66;4206775;28;20498;-74
2023/01/25 00:15:07;;;;;;;31.33;16.90;;;;;;;-1.57;100.00;100449.22;4215233;28;20566;-74
2023/01/25 00:17:07;;;;;;;25.45;14.10;;;;;;;-1.56;100.00;100440.03;4203156;28;20059;-74
2023/01/25 00:19:09;;;;;;;35.53;19.13;;;;;;;-1.55;100.00;100452.53;4204635;28;20084;-74
2023/01/25 00:21:23;;;;;;;33.67;16.40;;;;;;;-1.55;100.00;100447.09;4212201;28;20051;-74
2023/01/25 00:23:24;;;;;;;35.13;17.17;;;;;;;-1.58;100.00;100445.69;4202567;28;20282;-74
2023/01/25 00:25:24;;;;;;;28.85;14.00;;;;;;;-1.56;100.00;100435.41;4217265;27;20059;-74
2023/01/25 00:27:25;;;;;;;28.50;12.88;;;;;;;-1.53;100.00;100434.09;4217707;28;20420;-74
2023/01/25 00:29:25;;;;;;;23.05;10.88;;;;;;;-1.54;100.00;100433.28;4202526;28;20318;-74
2023/01/25 00:31:57;;;;;;;21.98;11.40;;;;;;;-1.53;100.00;100426.75;4213573;28;20108;-74
2023/01/25 00:34:22;;;;;;;23.07;9.97;;;;;;;-1.55;100.00;100423.50;4216573;28;20403;-74
2023/01/25 00:36:33;;;;;;;26.90;10.20;;;;;;;-1.60;100.00;100415.25;4211692;28;20040;-74
2023/01/25 00:38:33;;;;;;;25.58;12.65;;;;;;;-1.60;100.00;100412.56;4217784;28;20469;-74
2023/01/25 00:40:34;;;;;;;21.08;11.00;;;;;;;-1.58;100.00;100417.72;4211640;28;20071;-74
2023/01/25 00:42:34;;;;;;;21.80;10.32;;;;;;;-1.58;100.00;100426.69;4217830;28;20090;-74
2023/01/25 00:44:35;;;;;;;24.08;10.90;;;;;;;-1.55;100.00;100431.63;4215077;28;20051;-75
2023/01/25 00:46:35;;;;;;;20.92;10.05;;;;;;;-1.51;100.00;100419.19;4207388;28;20044;-74
2023/01/25 00:48:35;;;;;;;23.13;10.13;;;;;;;-1.51;100.00;100426.50;4208055;28;20108;-74
2023/01/25 00:50:36;;;;;;;24.70;9.55;;;;;;;-1.47;100.00;100411.38;4208936;28;20102;-74
2023/01/25 00:52:37;;;;;;;17.45;8.75;;;;;;;-1.46;100.00;100421.16;4202688;28;20098;-75
2023/01/25 00:54:37;;;;;;;21.23;8.98;;;;;;;-1.37;100.00;100421.53;4209296;28;20100;-74
2023/01/25 00:56:37;;;;;;;19.25;9.18;;;;;;;-1.37;100.00;100414.22;4209279;28;20182;-74
2023/01/25 00:58:39;;;;;;;20.20;8.70;;;;;;;-1.38;100.00;100419.91;4217712;28;20461;-74
2023/01/25 01:00:40;;;;;;;21.17;9.35;;;;;;;-1.32;100.00;100427.06;4217874;28;20039;-74
2023/01/25 01:02:40;;;;;;;20.35;8.45;;;;;;;-1.36;100.00;100412.31;4217231;28;20046;-74
2023/01/25 01:04:40;;;;;;;17.95;7.93;;;;;;;-1.37;100.00;100407.97;4212597;28;20044;-74
2023/01/25 01:06:41;;;;;;;17.40;8.32;;;;;;;-1.39;100.00;100412.84;4202803;28;20422;-74
2023/01/25 01:08:42;;;;;;;18.98;9.25;;;;;;;-1.40;100.00;100420.16;4202176;28;20036;-74
2023/01/25 01:10:42;;;;;;;17.05;8.00;;;;;;;-1.45;100.00;100411.94;4214557;28;20081;-74
2023/01/25 01:12:42;;;;;;;16.08;7.93;;;;;;;-1.46;100.00;100413.84;4215770;27;20083;-74
2023/01/25 01:14:43;;;;;;;20.80;9.15;;;;;;;-1.44;100.00;100419.00;4206861;28;20098;-74
2023/01/25 01:16:43;;;;;;;19.27;8.20;;;;;;;-1.40;100.00;100428.31;4211871;28;20075;-74
2023/01/25 01:18:44;;;;;;;17.25;8.98;;;;;;;-1.40;100.00;100424.78;4217868;28;20035;-74
2023/01/25 01:20:51;;;;;;;19.45;9.48;;;;;;;-1.39;100.00;100421.81;4213951;28;20056;-74
2023/01/25 01:22:54;;;;;;;18.85;8.38;;;;;;;-1.38;100.00;100426.16;4200820;28;20052;-74
2023/01/25 01:24:54;;;;;;;19.65;8.50;;;;;;;-1.35;100.00;100427.53;4214953;28;20052;-75
2023/01/25 01:26:54;;;;;;;16.77;7.75;;;;;;;-1.37;100.00;100425.06;4204703;28;20054;-74
2023/01/25 01:28:56;;;;;;;15.93;7.57;;;;;;;-1.41;100.00;100429.34;4204278;28;20399;-74
2023/01/25 01:31:05;;;;;;;19.20;8.90;;;;;;;-1.46;100.00;100419.25;4203286;28;20040;-74
2023/01/25 01:33:06;;;;;;;17.23;8.23;;;;;;;-1.51;100.00;100421.91;4201744;28;20044;-74
2023/01/25 01:35:06;;;;;;;19.90;9.20;;;;;;;-1.52;100.00;100419.44;4201998;28;20492;-74
2023/01/25 01:37:07;;;;;;;23.25;9.63;;;;;;;-1.59;100.00;100425.03;4202090;28;20040;-74
2023/01/25 01:39:08;;;;;;;17.95;8.52;;;;;;;-1.62;100.00;100424.75;4210531;28;20230;-74
2023/01/25 01:41:09;;;;;;;17.77;8.63;;;;;;;-1.61;100.00;100424.47;4217707;28;20379;-74
2023/01/25 01:43:20;;;;;;;20.65;9.07;;;;;;;-1.60;100.00;100425.31;4214782;28;20059;-74
2023/01/25 01:45:43;;;;;;;20.77;8.98;;;;;;;-1.58;100.00;100432.13;4205358;28;20131;-74
2023/01/25 01:47:45;;;;;;;19.33;8.35;;;;;;;-1.57;100.00;100430.22;4205322;28;20462;-74
2023/01/25 01:49:50;;;;;;;;;;;;;;;-1.61;100.00;100426.38;4209980;28;20097;-74
2023/01/25 01:52:07;;;;;;;25.77;12.75;;;;;;;-1.63;100.00;100423.09;4215244;28;19998;-74
2023/01/25 01:54:19;;;;;;;22.48;9.60;;;;;;;-1.71;100.00;100418.91;4219603;27;20085;-74
2023/01/25 01:56:27;;;;;;;18.80;8.82;;;;;;;-1.75;100.00;100421.28;4221890;27;20382;-74
2023/01/25 01:58:28;;;;;;;16.70;7.93;;;;;;;-1.76;100.00;100425.09;4204679;28;20077;-74
2023/01/25 02:00:33;;;;;;;16.10;9.60;;;;;;;-1.76;100.00;100408.81;4217788;28;20188;-74
2023/01/25 02:02:33;;;;;;;17.05;7.53;;;;;;;-1.76;100.00;100416.13;4220206;28;20177;-74
2023/01/25 02:04:34;;;;;;;20.05;8.93;;;;;;;-1.73;100.00;100413.75;4208562;28;20496;-74
2023/01/25 02:06:56;;;;;;;21.70;10.73;;;;;;;-1.72;100.00;100415.38;4205427;28;20043;-74
2023/01/25 02:08:57;;;;;;;19.08;9.20;;;;;;;-1.77;100.00;100406.34;4205066;28;20078;-74
2023/01/25 02:10:59;;;;;;;18.40;9.88;;;;;;;-1.81;100.00;100411.47;4204944;28;20044;-74
2023/01/25 02:13:00;;;;;;;21.48;9.77;;;;;;;-1.77;100.00;100407.16;4210513;28;20156;-74
2023/01/25 02:15:00;;;;;;;16.60;9.23;;;;;;;-1.81;100.00;100413.34;4207233;28;20454;-74
2023/01/25 02:17:02;;;;;;;16.92;9.93;;;;;;;-1.83;100.00;100413.56;4206463;28;20427;-74
2023/01/25 02:19:04;;;;;;;16.70;9.13;;;;;;;-1.83;100.00;100407.34;4219714;28;20403;-74
2023/01/25 02:21:04;;;;;;;20.77;10.75;;;;;;;-1.86;100.00;100402.41;4220755;28;20063;-74
2023/01/25 02:23:07;;;;;;;15.75;8.52;;;;;;;-1.86;100.00;100397.00;4212142;28;20044;-74
2023/01/25 02:25:09;;;;;;;17.85;9.13;;;;;;;-1.86;100.00;100392.38;4217473;28;20040;-74
2023/01/25 02:27:10;;;;;;;18.65;8.95;;;;;;;-1.85;100.00;100387.78;4218994;28;20127;-74
2023/01/25 02:29:11;;;;;;;20.70;9.40;;;;;;;-1.85;100.00;100385.88;4205248;28;20082;-74
2023/01/25 02:31:11;;;;;;;22.27;9.35;;;;;;;-1.83;100.00;100388.34;4204763;28;20065;-74
2023/01/25 02:33:12;;;;;;;17.65;8.63;;;;;;;-1.85;100.00;100380.47;4210978;27;20138;-74
2023/01/25 02:35:20;;;;;;;14.50;7.93;;;;;;;-1.85;100.00;100380.47;4205506;28;20075;-74
2023/01/25 02:37:21;;;;;;;16.13;7.53;;;;;;;-1.83;100.00;100380.19;4206053;28;20049;-74
2023/01/25 02:39:25;;;;;;;17.20;9.23;;;;;;;-1.85;100.00;100379.63;4220905;28;20112;-74
2023/01/25 02:41:38;;;;;;;17.48;7.72;;;;;;;-1.86;100.00;100367.97;4214061;28;20131;-74
2023/01/25 02:43:38;;;;;;;20.20;9.07;;;;;;;-1.84;100.00;100365.81;4210917;28;20048;-74
2023/01/25 02:45:38;;;;;;;16.85;8.13;;;;;;;-1.85;100.00;100369.59;4204453;28;20048;-74
2023/01/25 02:47:39;;;;;;;16.33;7.45;;;;;;;-1.86;100.00;100373.38;4217245;28;20134;-74
2023/01/25 02:49:39;;;;;;;15.70;7.88;;;;;;;-1.89;100.00;100373.91;4220266;27;20104;-74
2023/01/25 02:51:43;;;;;;;16.67;8.13;;;;;;;-1.85;100.00;100371.50;4215050;28;20140;-74
2023/01/25 02:53:43;;;;;;;13.98;7.78;;;;;;;-1.82;100.00;100360.13;4203890;28;20048;-74
2023/01/25 02:55:44;;;;;;;17.38;8.23;;;;;;;-1.78;100.00;100350.44;4203164;28;20540;-75
2023/01/25 02:57:44;;;;;;;19.38;8.60;;;;;;;-1.71;100.00;100356.50;4216924;28;20051;-74
2023/01/25 02:59:45;;;;;;;15.40;7.78;;;;;;;-1.70;100.00;100350.81;4219834;28;20075;-74
2023/01/25 03:01:45;;;;;;;18.30;8.10;;;;;;;-1.66;100.00;100351.13;4210702;27;20040;-74
2023/01/25 03:03:46;;;;;;;17.02;7.82;;;;;;;-1.66;100.00;100348.41;4203757;28;20051;-74
2023/01/25 03:05:46;;;;;;;14.25;6.70;;;;;;;-1.66;100.00;100339.44;4204579;28;20299;-74
2023/01/25 03:07:47;;;;;;;19.50;7.65;;;;;;;-1.60;100.00;100338.44;4204991;27;20105;-75
2023/01/25 03:09:47;;;;;;;14.05;6.45;;;;;;;-1.55;100.00;100338.50;4203715;28;20131;-74
2023/01/25 03:11:47;;;;;;;12.57;6.45;;;;;;;-1.47;100.00;100329.94;4209983;28;20044;-74
2023/01/25 03:13:48;;;;;;;15.75;6.65;;;;;;;-1.50;100.00;100330.41;4218842;28;20384;-75
2023/01/25 03:15:48;;;;;;;15.07;6.82;;;;;;;-1.57;100.00;100325.19;4211861;28;20050;-74
2023/01/25 03:17:49;;;;;;;14.23;6.40;;;;;;;-1.50;100.00;100330.41;4204142;28;20044;-74
2023/01/25 03:19:49;;;;;;;13.93;6.22;;;;;;;-1.54;100.00;100319.25;4214796;28;20446;-74
2023/01/25 03:21:49;;;;;;;13.88;7.57;;;;;;;-1.55;100.00;100319.50;4211740;28;20487;-74
2023/01/25 03:23:59;;;;;;;17.90;7.40;;;;;;;-1.58;100.00;100315.38;4218344;28;20063;-74
2023/01/25 03:26:09;;;;;;;16.67;7.55;;;;;;;-1.72;100.00;100311.44;4211245;28;20447;-74
2023/01/25 03:28:09;;;;;;;12.63;6.20;;;;;;;-1.79;100.00;100308.09;4204576;28;20492;-74
2023/01/25 03:30:10;;;;;;;16.38;6.90;;;;;;;-1.85;100.00;100309.09;4204171;28;20101;-74
2023/01/25 03:32:10;;;;;;;19.50;8.98;;;;;;;-1.91;100.00;100301.94;4219281;28;20035;-74
2023/01/25 03:34:11;;;;;;;15.77;7.95;;;;;;;-1.89;100.00;100306.06;4218017;28;20031;-74
2023/01/25 03:36:11;;;;;;;18.52;7.60;;;;;;;-1.85;100.00;100301.78;4219321;27;20349;-75
2023/01/25 03:38:12;;;;;;;15.18;7.88;;;;;;;-1.83;100.00;100296.91;4205665;28;20575;-74
2023/01/25 03:40:12;;;;;;;17.70;8.05;;;;;;;-1.82;100.00;100295.00;4203993;28;20023;-74
2023/01/25 03:42:13;;;;;;;16.95;7.10;;;;;;;-1.78;100.00;100286.13;4203676;28;20155;-74
2023/01/25 03:44:13;;;;;;;16.48;7.28;;;;;;;-1.74;100.00;100295.41;4203477;28;20497;-74
2023/01/25 03:46:13;;;;;;;17.70;7.60;;;;;;;-1.72;100.00;100290.56;4213286;28;20165;-74
2023/01/25 03:48:13;;;;;;;18.55;7.35;;;;;;;-1.62;100.00;100289.03;4218924;28;20043;-74
2023/01/25 03:50:14;;;;;;;20.55;8.68;;;;;;;-1.71;100.00;100289.47;4202023;28;20065;-74
2023/01/25 03:52:14;;;;;;;20.25;9.15;;;;;;;-1.76;100.00;100291.28;4204045;28;20452;-74
2023/01/25 03:54:15;;;;;;;16.27;7.95;;;;;;;-1.79;100.00;100291.81;4203837;28;20030;-74
2023/01/25 03:56:19;;;;;;;19.13;8.02;;;;;;;-1.83;100.00;100285.22;4205167;28;20056;-74
2023/01/25 03:58:19;;;;;;;18.15;7.68;;;;;;;-1.87;100.00;100282.22;4203824;28;20044;-74
2023/01/25 04:00:20;;;;;;;13.45;7.20;;;;;;;-1.89;100.00;100280.84;4212923;28;20062;-74
2023/01/25 04:02:20;;;;;;;14.02;6.88;;;;;;;-1.90;100.00;100284.59;4218817;27;20088;-74
2023/01/25 04:04:20;;;;;;;15.65;7.45;;;;;;;-1.96;100.00;100285.63;4215140;28;20052;-74
2023/01/25 04:06:21;;;;;;;15.18;7.10;;;;;;;-1.94;100.00;100286.19;4203352;28;20056;-75
2023/01/25 04:08:22;;;;;;;17.85;8.40;;;;;;;-2.00;100.00;100286.09;4212226;28;20054;-75
2023/01/25 04:10:22;;;;;;;16.23;6.63;;;;;;;-2.04;100.00;100274.13;4219081;28;20434;-74
2023/01/25 04:12:23;;;;;;;15.93;7.25;;;;;;;-2.03;100.00;100280.38;4218007;28;20050;-74
2023/01/25 04:14:23;;;;;;;13.98;6.88;;;;;;;-2.10;100.00;100277.84;4215930;28;20430;-74
2023/01/25 04:16:23;;;;;;;15.30;7.45;;;;;;;-2.10;100.00;100277.03;4215596;28;20394;-75
2023/01/25 04:18:24;;;;;;;15.73;7.10;;;;;;;-2.08;100.00;100272.97;4218121;28;20036;-74
2023/01/25 04:20:24;;;;;;;18.42;7.80;;;;;;;-2.09;100.00;100273.25;4218815;28;20079;-74
2023/01/25 04:22:24;;;;;;;15.68;6.22;;;;;;;-2.08;100.00;100272.97;4217430;28;20650;-74
2023/01/25 04:24:24;;;;;;;15.25;7.22;;;;;;;-2.07;100.00;100279.22;4218119;28;20502;-74
2023/01/25 04:26:25;;;;;;;13.60;7.03;;;;;;;-2.09;100.00;100273.25;4218242;28;20031;-74
2023/01/25 04:28:26;;;;;;;16.73;7.65;;;;;;;-2.09;100.00;100262.38;4215388;27;20044;-74
2023/01/25 04:30:27;;;;;;;13.47;6.63;;;;;;;-2.11;100.00;100264.53;4203245;28;20043;-74
2023/01/25 04:32:27;;;;;;;13.05;6.47;;;;;;;-2.13;100.00;100266.69;4204421;28;20777;-74
2023/01/25 04:34:27;;;;;;;12.75;6.25;;;;;;;-2.13;100.00;100261.28;4206350;28;20480;-74
2023/01/25 04:36:28;;;;;;;16.20;7.43;;;;;;;-2.12;100.00;100255.59;4205855;28;20043;-74
2023/01/25 04:38:28;;;;;;;16.77;7.60;;;;;;;-2.12;100.00;100252.88;4214943;28;20046;-74
2023/01/25 04:40:29;;;;;;;14.82;7.05;;;;;;;-2.10;100.00;100253.44;4208202;28;20131;-74
2023/01/25 04:42:29;;;;;;;15.57;6.80;;;;;;;-2.09;100.00;100256.97;4206991;28;20181;-74
2023/01/25 04:44:29;;;;;;;15.00;6.95;;;;;;;-2.07;100.00;100254.81;4209353;28;20305;-74
2023/01/25 04:46:30;;;;;;;13.27;6.65;;;;;;;-2.12;100.00;100261.00;4200677;28;20443;-74
2023/01/25 04:48:31;;;;;;;16.40;6.80;;;;;;;-2.09;100.00;100260.50;4205111;28;20075;-74
2023/01/25 04:50:31;;;;;;;17.42;7.75;;;;;;;-2.08;100.00;100250.47;4208547;28;20086;-74
2023/01/25 04:52:31;;;;;;;14.80;6.95;;;;;;;-2.04;100.00;100252.44;4205393;28;20122;-74
2023/01/25 04:54:31;;;;;;;16.58;7.97;;;;;;;-2.03;100.00;100254.06;4203232;28;20040;-74
2023/01/25 04:56:32;;;;;;;14.90;7.10;;;;;;;-2.06;100.00;100254.59;4205664;28;20264;-74
2023/01/25 04:58:32;;;;;;;17.50;7.03;;;;;;;-2.07;100.00;100249.38;4208166;28;20047;-74
2023/01/25 05:00:33;;;;;;;16.15;7.85;;;;;;;-2.08;100.00;100250.47;4205573;28;20036;-74
2023/01/25 05:02:33;;;;;;;17.63;7.45;;;;;;;-2.10;100.00;100244.47;4207326;28;20406;-75
2023/01/25 05:04:33;;;;;;;13.10;6.43;;;;;;;-2.03;100.00;100248.66;4204043;28;20044;-75
2023/01/25 05:06:34;;;;;;;13.85;6.88;;;;;;;-2.06;100.00;100251.88;4206974;28;20084;-75
2023/01/25 05:08:34;;;;;;;15.38;7.97;;;;;;;-2.06;100.00;100245.63;4206330;28;20077;-74
2023/01/25 05:10:34;;;;;;;15.18;6.68;;;;;;;-2.07;100.00;100244.81;4207190;27;20035;-74
2023/01/25 05:12:35;;;;;;;15.15;7.47;;;;;;;-2.09;100.00;100240.69;4203513;28;20048;-74
2023/01/25 05:14:35;;;;;;;14.60;7.28;;;;;;;-2.07;100.00;100242.09;4204651;28;20410;-74
2023/01/25 05:16:35;;;;;;;16.42;7.18;;;;;;;-2.04;100.00;100247.00;4209525;28;20451;-74
2023/01/25 05:18:36;;;;;;;14.82;7.18;;;;;;;-2.03;100.00;100239.69;4207434;28;20064;-75
2023/01/25 05:20:36;;;;;;;15.90;7.60;;;;;;;-1.99;100.00;100244.38;4206349;28;20040;-74
2023/01/25 05:22:36;;;;;;;18.02;7.68;;;;;;;-1.93;100.00;100253.38;4204387;28;20075;-74
2023/01/25 05:24:40;;;;;;;16.02;7.82;;;;;;;-1.93;100.00;100242.53;4203576;28;20256;-74
2023/01/25 05:28:59;;;;;;;12.75;6.85;;;;;;;-1.97;100.00;100246.81;4206736;28;20271;-74
2023/01/25 05:31:04;;;;;;;14.48;6.75;;;;;;;-1.95;100.00;100246.56;4207482;28;20064;-74
2023/01/25 05:33:04;;;;;;;18.13;7.68;;;;;;;-1.95;100.00;100244.69;4207848;28;20040;-74
2023/01/25 05:35:05;;;;;;;17.27;8.27;;;;;;;-1.93;100.00;100247.13;4207861;28;20028;-74
2023/01/25 05:37:07;;;;;;;19.08;8.50;;;;;;;-1.93;100.00;100256.09;4205767;28;20460;-74
2023/01/25 05:39:08;;;;;;;19.92;8.65;;;;;;;-1.96;100.00;100245.75;4206238;28;20044;-74
2023/01/25 05:41:15;;;;;;;14.43;6.70;;;;;;;-1.92;100.00;100244.16;4200596;28;20121;-74
2023/01/25 05:43:15;;;;;;;18.98;9.13;;;;;;;-1.96;100.00;100243.03;4200578;28;20403;-74
2023/01/25 05:45:15;;;;;;;18.27;7.93;;;;;;;-2.01;100.00;100240.25;4201078;28;20093;-74
2023/01/25 05:47:16;;;;;;;18.92;8.02;;;;;;;-1.95;100.00;100238.44;4202570;28;20051;-74
2023/01/25 05:49:17;;;;;;;17.50;7.05;;;;;;;-1.92;100.00;100246.06;4205294;28;20060;-74
2023/01/25 05:51:18;;;;;;;17.35;7.20;;;;;;;-1.94;100.00;100245.50;4210062;28;20063;-74
2023/01/25 05:53:24;;;;;;;15.85;7.03;;;;;;;-2.03;100.00;100239.69;4208659;28;20047;-74
2023/01/25 05:55:24;;;;;;;15.65;7.85;;;;;;;-2.04;100.00;100236.16;4208476;28;20490;-75
2023/01/25 05:57:25;;;;;;;15.02;6.53;;;;;;;-2.07;100.00;100242.09;4209992;28;20045;-74
2023/01/25 05:59:25;;;;;;;16.95;7.30;;;;;;;-2.06;100.00;100235.59;4209427;28;20055;-74
2023/01/25 06:01:26;;;;;;;18.70;7.63;;;;;;;-2.02;100.00;100238.63;4210736;28;20048;-74
2023/01/25 06:03:27;;;;;;;14.98;6.90;;;;;;;-1.98;100.00;100242.47;4206645;28;20036;-74
2023/01/25 06:05:27;;;;;;;14.70;6.43;;;;;;;-1.94;100.00;100231.94;4208009;28;20524;-75
2023/01/25 06:07:27;;;;;;;13.35;6.63;;;;;;;-1.94;100.00;100238.19;4202377;28;20040;-74
2023/01/25 06:09:28;;;;;;;12.18;6.68;;;;;;;-2.00;100.00;100239.19;4207467;28;20044;-74
2023/01/25 06:11:28;;;;;;;13.95;6.78;;;;;;;-2.06;100.00;100237.50;4212547;28;20070;-74
2023/01/25 06:13:28;;;;;;;13.13;6.78;;;;;;;-2.09;100.00;100238.78;4208594;28;20067;-74
2023/01/25 06:15:29;;;;;;;14.10;7.55;;;;;;;-2.07;100.00;100228.53;4203712;28;20583;-74
2023/01/25 06:17:29;;;;;;;18.95;7.85;;;;;;;-2.08;100.00;100232.28;4203931;28;20360;-75
2023/01/25 06:19:29;;;;;;;14.98;7.95;;;;;;;-2.05;100.00;100229.09;4205281;28;20059;-74
2023/01/25 06:21:30;;;;;;;19.73;8.05;;;;;;;-2.04;100.00;100229.91;4207648;28;20055;-74
2023/01/25 06:23:30;;;;;;;15.73;7.25;;;;;;;-2.06;100.00;100238.31;4205243;28;20048;-74
2023/01/25 06:25:30;;;;;;;17.83;8.40;;;;;;;-2.05;100.00;100231.00;4205698;28;20051;-74
2023/01/25 06:27:31;;;;;;;16.80;8.02;;;;;;;-2.02;100.00;100228.59;4205738;28;20211;-74
2023/01/25 06:29:31;;;;;;;13.93;6.60;;;;;;;-1.96;100.00;100234.09;4207845;28;20480;-74
2023/01/25 06:31:31;;;;;;;15.48;6.32;;;;;;;-2.01;100.00;100240.25;4211399;28;20126;-74
2023/01/25 06:33:32;;;;;;;15.45;7.15;;;;;;;-2.02;100.00;100235.91;4205780;28;20044;-74
2023/01/25 06:35:33;;;;;;;15.38;8.15;;;;;;;-2.03;100.00;100239.69;4210729;28;20043;-74
2023/01/25 06:37:33;;;;;;;14.05;6.72;;;;;;;-2.04;100.00;100238.06;4207347;28;20050;-74
2023/01/25 06:39:33;;;;;;;13.65;7.38;;;;;;;-2.04;100.00;100246.19;4207908;28;20044;-75
2023/01/25 06:41:34;;;;;;;12.25;5.93;;;;;;;-2.10;100.00;100244.47;4208017;28;20584;-74
2023/01/25 06:43:35;;;;;;;13.65;6.70;;;;;;;-2.13;100.00;100247.72;4204258;28;20032;-74
2023/01/25 06:45:35;;;;;;;14.35;6.60;;;;;;;-2.13;100.00;100245.81;4211597;28;20036;-74
2023/01/25 06:47:36;;;;;;;16.00;6.93;;;;;;;-2.16;100.00;100243.59;4219924;27;20159;-74
2023/01/25 06:49:36;;;;;;;16.58;7.22;;;;;;;-2.13;100.00;100250.41;4215328;28;20193;-74
2023/01/25 06:51:36;;;;;;;15.35;7.47;;;;;;;-2.13;100.00;100248.53;4206924;28;20044;-74
2023/01/25 06:53:39;;;;;;;16.73;7.55;;;;;;;-2.17;100.00;100244.66;4204244;28;20040;-74
2023/01/25 06:55:39;;;;;;;19.77;6.88;;;;;;;-2.13;100.00;100250.41;4204899;28;20797;-74
2023/01/25 06:57:40;;;;;;;17.38;8.30;;;;;;;-2.10;100.00;100241.75;4205028;28;20056;-74
2023/01/25 06:59:40;;;;;;;16.30;7.32;;;;;;;-2.10;100.00;100241.75;4205760;28;20048;-74
2023/01/25 07:01:40;;;;;;;16.23;7.28;;;;;;;-2.12;100.00;100243.91;4204863;28;20075;-74
2023/01/25 07:03:41;;;;;;;18.42;7.93;;;;;;;-2.08;100.00;100245.84;4204216;28;20043;-74
2023/01/25 07:05:42;;;;;;;15.55;7.20;;;;;;;-2.06;100.00;100246.44;4205339;28;20051;-74
2023/01/25 07:07:45;;;;;;;16.52;6.97;;;;;;;-2.02;100.00;100246.75;4204613;28;20044;-75
2023/01/25 07:09:46;;;;;;;15.85;7.07;;;;;;;-1.98;100.00;100228.91;4217739;28;20042;-74
2023/01/25 07:11:46;;;;;;;15.40;7.15;;;;;;;-1.92;100.00;100240.63;4219694;28;20032;-74
2023/01/25 07:13:47;;;;;;;14.05;6.85;;;;;;;-1.98;100.00;100242.47;4214222;28;20058;-74
2023/01/25 07:16:10;;;;;;;13.63;6.55;;;;;;;-2.01;100.00;100240.25;4211590;28;20314;-74
2023/01/25 07:18:10;;;;;;;12.15;6.60;;;;;;;-2.02;100.00;100234.00;4218615;28;20165;-74
2023/01/25 07:20:11;;;;;;;11.20;6.43;;;;;;;-2.02;100.00;100231.28;4219836;28;20071;-74
2023/01/25 07:22:11;;;;;;;13.10;6.40;;;;;;;-2.04;100.00;100225.31;4220103;28;20118;-74
2023/01/25 07:24:17;;;;;;;12.05;6.15;;;;;;;-2.07;100.00;100225.81;4210561;28;20512;-74
2023/01/25 07:26:23;;;;;;;14.35;6.80;;;;;;;-2.06;100.00;100213.91;4208677;28;20034;-74
2023/01/25 07:28:24;;;;;;;14.68;6.93;;;;;;;-2.04;100.00;100213.66;4217002;28;20368;-74
2023/01/25 07:30:24;;;;;;;11.65;5.22;;;;;;;-1.95;100.00;100220.25;4218918;28;20305;-74
2023/01/25 07:32:24;;;;;;;11.50;5.93;;;;;;;-1.97;100.00;100222.41;4218261;28;20115;-74
2023/01/25 07:34:25;;;;;;;10.73;5.28;;;;;;;-1.97;100.00;100214.28;4219337;28;20494;-74
2023/01/25 07:36:25;;;;;;;9.13;5.20;;;;;;;-1.96;100.00;100201.53;4219406;28;20044;-74
2023/01/25 07:38:25;;;;;;;12.70;5.72;;;;;;;-2.09;100.00;100208.16;4210329;28;20127;-74
2023/01/25 07:40:26;;;;;;;13.95;5.88;;;;;;;-2.10;100.00;100206.50;4218552;28;20619;-74
2023/01/25 07:42:26;;;;;;;11.52;5.63;;;;;;;-2.17;100.00;100212.13;4212165;28;20486;-74
2023/01/25 07:44:26;;;;;;;13.35;6.50;;;;;;;-2.19;100.00;100203.41;4220629;27;20820;-74
2023/01/25 07:46:27;;;;;;;13.18;6.40;;;;;;;-2.19;100.00;100200.72;4218280;28;20741;-74
2023/01/25 07:48:27;;;;;;;12.57;6.72;;;;;;;-2.21;100.00;100199.34;4210620;28;20439;-74
2023/01/25 07:50:28;;;;;;;15.98;6.43;;;;;;;-2.24;100.00;100191.69;4204164;28;20071;-74
2023/01/25 07:52:28;;;;;;;15.48;6.80;;;;;;;-2.22;100.00;100203.13;4212833;28;20414;-74
2023/01/25 07:54:28;;;;;;;14.23;6.72;;;;;;;-2.20;100.00;100196.38;4218993;28;20089;-74
2023/01/25 07:56:36;;;;;;;20.25;7.40;;;;;;;-2.18;100.00;100198.81;4219093;28;20066;-74
2023/01/25 07:58:37;;;;;;;13.15;6.05;;;;;;;-2.17;100.00;100198.56;4213082;28;20047;-74
2023/01/25 08:00:37;;;;;;;13.43;7.28;;;;;;;-2.18;100.00;100199.63;4218382;28;20455;-74
2023/01/25 08:02:38;;;;;;;15.48;6.85;;;;;;;-2.21;100.00;100197.44;4218821;28;20480;-74
2023/01/25 08:04:38;;;;;;;25.55;9.82;;;;;;;-2.20;100.00;100196.38;4216599;28;20040;-74
2023/01/25 08:06:38;;;;;;;21.92;10.52;;;;;;;-2.18;100.00;100196.91;4203849;28;20087;-74
2023/01/25 08:08:42;;;;;;;18.85;9.82;;;;;;;-2.18;100.00;100194.22;4216096;28;20036;-74
2023/01/25 08:10:42;;;;;;;15.07;7.63;;;;;;;-2.19;100.00;100189.88;4218972;28;20364;-74
2023/01/25 08:12:45;;;;;;;19.70;8.48;;;;;;;-2.18;100.00;100190.69;4218139;28;20050;-74
2023/01/25 08:14:48;;;;;;;12.90;7.60;;;;;;;-2.11;100.00;100194.84;4218639;28;20044;-74
2023/01/25 08:16:49;;;;;;;18.27;7.35;;;;;;;-2.05;100.00;100193.03;4208292;28;20492;-74
2023/01/25 08:18:51;;;;;;;13.57;6.40;;;;;;;-2.01;100.00;100181.41;4219218;28;20180;-74
2023/01/25 08:20:52;;;;;;;16.85;7.15;;;;;;;-1.95;100.00;100184.19;4202442;28;20256;-74
2023/01/25 08:22:52;;;;;;;13.10;6.60;;;;;;;-1.94;100.00;100181.22;4216832;28;20056;-74
2023/01/25 08:24:53;;;;;;;14.60;6.65;;;;;;;-1.95;100.00;100176.03;4218513;28;20467;-74
2023/01/25 08:26:53;;;;;;;15.60;6.93;;;;;;;-1.92;100.00;100176.34;4218178;28;20043;-74
2023/01/25 08:28:54;;;;;;;20.52;7.95;;;;;;;-1.92;100.00;100176.34;4218857;28;20051;-74
2023/01/25 08:31:04;;;;;;;16.17;7.68;;;;;;;-1.90;100.00;100171.50;4211513;28;20500;-74
2023/01/25 08:33:04;;;;;;;16.48;6.53;;;;;;;-1.88;100.00;100168.53;4212290;28;20499;-74
2023/01/25 08:35:05;;;;;;;16.88;7.40;;;;;;;-1.87;100.00;100165.56;4217127;28;20036;-74
2023/01/25 08:37:05;;;;;;;18.00;8.48;;;;;;;-1.84;100.00;100178.59;4218296;28;20040;-74
2023/01/25 08:39:07;;;;;;;13.70;5.90;;;;;;;-1.85;100.00;100168.81;4218988;28;20054;-75
2023/01/25 08:41:09;;;;;;;12.80;6.53;;;;;;;-1.85;100.00;100171.53;4218116;28;20044;-75
2023/01/25 08:43:09;;;;;;;14.80;6.87;;;;;;;-1.84;100.00;100156.88;4218428;28;20036;-74
2023/01/25 08:45:10;;;;;;;14.77;6.40;;;;;;;-1.85;100.00;100163.41;4211184;28;20378;-74
2023/01/25 08:47:10;;;;;;;18.98;8.55;;;;;;;-1.88;100.00;100161.19;4218655;28;20358;-74
2023/01/25 08:49:10;;;;;;;19.08;7.88;;;;;;;-1.91;100.00;100150.84;4218809;28;20092;-74
2023/01/25 08:51:13;;;;;;;18.20;8.77;;;;;;;-1.88;100.00;100152.25;4211745;28;20104;-74
2023/01/25 08:53:14;;;;;;;15.68;8.02;;;;;;;-1.88;100.00;100158.50;4216388;28;20040;-74
2023/01/25 08:55:14;;;;;;;17.35;8.10;;;;;;;-1.83;100.00;100168.56;4216922;28;20374;-74
2023/01/25 08:57:14;;;;;;;18.85;8.43;;;;;;;-1.84;100.00;100161.50;4203297;28;20054;-75
2023/01/25 08:59:15;;;;;;;15.73;7.43;;;;;;;-1.84;100.00;100161.50;4202616;28;20465;-74
2023/01/25 09:01:16;;;;;;;16.52;7.20;;;;;;;-1.85;100.00;100154.44;4203432;28;20044;-74
2023/01/25 09:03:17;;;;;;;16.65;7.00;;;;;;;-1.77;100.00;100153.97;4202295;28;20055;-74
2023/01/25 09:05:17;;;;;;;13.93;6.82;;;;;;;-1.78;100.00;100152.34;4204160;28;20051;-74
2023/01/25 09:07:17;;;;;;;17.50;9.55;;;;;;;-1.79;100.00;100151.53;4218548;27;20040;-74
2023/01/25 09:09:18;;;;;;;18.25;10.70;;;;;;;-1.79;100.00;100148.81;4217766;27;20498;-74
2023/01/25 09:11:21;;;;;;;19.85;10.68;;;;;;;-1.80;100.00;100143.66;4218442;28;20047;-74
2023/01/25 09:13:21;;;;;;;15.48;8.98;;;;;;;-1.83;100.00;100142.25;4217002;28;20174;-74
2023/01/25 09:15:21;;;;;;;15.18;7.82;;;;;;;-1.80;100.00;100140.94;4209186;28;20818;-74